Lawrenceville, Arkansas
Current Conditions -  °F | °C
As of 12:35 PM on Friday 31 Oct 2014 (Local Time) from KSGT Reporting Station
Few Clouds Few Clouds  
Wind Chill: 17°   Ceiling: Unl
Heat Index: 17°   Visibility: 10mi
Dew Point:   Wind: 17mph
Humidity: 48%   Direction: 360°N
Pressure: 30.2"   Gusts: 24mph
Location:  34.5919°N, 91.1409°W
Report Text: KSGT 311735Z AUTO 36015G21KT 10SM FEW039 17/06 A3020 RMK AO1
Loading
Personal Weather Stations






























Interactive Weather Map
Tropical Storm Tracking
New forecast layout! Learn more

10-Day Weather Forecast

Advertisements
Track Severe Weather on mobile